KMSO

Missoula International Airport

Missoula, Montana, USA
METAR KMSO 230853Z AUTO 00000KT 10SM CLR 11/07 A2990 RMK AO2 SLP110 T01110072 58005
Observed Flight Rules
May-23 @ 08:53 UTC (14 minutes ago) Visual Flight Rules
Visibility Clouds
10 miles
  • Clear skies
Temperatures Readings
Current 11°C / 52°F
Dewpoint 7°C / 45°F
Humidity 77%
Altimeter 29.9" Hg
Pressure 1011 hPa
Elevation 975
METAR KMSO 230853Z AUTO 00000KT 10SM CLR 11/07 A2990 RMK AO2 SLP110 T01110072 58005
Observed Flight Rules
May-23 @ 08:53 UTC
(14 minutes ago)
VFR
Clouds
  • Clear skies
Temperature Dewpoint
11°C / 52°F 7°C / 45°F
Humidity Altimeter Pressure
77% 29.9" Hg 1011 hPa